Herbert, Illinois
Current Conditions -  °F | °C
As of 8:35 AM on Sunday 23 Nov 2014 (Local Time) from KDKB Reporting Station
Overcast Overcast  
Wind Chill: 38°   Ceiling: 3600
Heat Index: 44°   Visibility: NA
Dew Point: 42°   Wind: 12mph
Humidity: 94%   Direction: 150°SSE
Pressure: 29.71"   Gusts: NA
Location:  42.1119°N, 88.7806°W
Report Text: KDKB 231435Z AUTO 15010KT OVC036 07/06 A2971 RMK AO2 P0001 T00660057 PWINO
Loading
Personal Weather Stations






























Interactive Weather Map New forecast layout! Learn more

10-Day Weather Forecast

Advertisements
Track Severe Weather on mobile